Aviation Digital Data Service (ADDS)

Output produced by METARs form (0339 UTC 26 April 2019)
found at http://www.aviationweather.gov/metar/data/
 
Forecast for: RPVM (MACTAN-CEBU , PH)
Text: TAF RPVM 252300Z 2600/2706 04006KT 9999 FEW020
Forecast period: 0000 UTC 26 April 2019 to 0600 UTC 27 April 2019
Forecast type: FROM: standard forecast or significant change
Winds: from the NE (40 degrees) at 7 MPH (6 knots; 3.1 m/s)
Visibility: 6 or more miles 10+ km)
Ceiling: at least 12,000 feet AGL
Clouds: few clouds at 2000 feet AGL
Weather: no significant weather forecast for this period
Text: TEMPO 2600/2606 07010KT FEW020 SCT300
Forecast period: 0000 to 0600 UTC 26 April 2019
Forecast type: TEMPORARY: The following changes expected for less than half the time period
Winds: from the ENE (70 degrees) at 12 MPH (10 knots; 5.1 m/s)
Visibility: missing
Ceiling: at least 12,000 feet AGL
Clouds: few clouds at 2000 feet AGL
scattered clouds at 30000 feet AGL
Weather: no significant weather forecast for this period
Text: TEMPO 2606/2612 06012KT FEW020 SCT100
Forecast period: 0600 to 1200 UTC 26 April 2019
Forecast type: TEMPORARY: The following changes expected for less than half the time period
Winds: from the ENE (60 degrees) at 14 MPH (12 knots; 6.2 m/s)
Visibility: missing
Ceiling: at least 12,000 feet AGL
Clouds: few clouds at 2000 feet AGL
scattered clouds at 10000 feet AGL
Weather: no significant weather forecast for this period